createdAt,value
2022-08-28T00:02:04.251Z,14.50
2022-08-28T00:04:56.557Z,14.10
2022-08-28T00:07:49.390Z,14.00
2022-08-28T00:10:42.686Z,13.00
2022-08-28T00:13:34.845Z,12.60
2022-08-28T00:16:27.649Z,13.00
2022-08-28T00:19:20.772Z,13.60
2022-08-28T00:22:12.837Z,13.20
2022-08-28T00:25:09.392Z,12.00
2022-08-28T00:28:10.376Z,11.90
2022-08-28T00:31:02.882Z,11.40
2022-08-28T00:33:54.935Z,12.80
2022-08-28T00:36:46.901Z,11.60
2022-08-28T00:39:31.216Z,10.90
2022-08-28T00:42:17.265Z,10.10
2022-08-28T00:45:13.265Z,10.40
2022-08-28T00:48:05.931Z,10.80
2022-08-28T00:51:01.678Z,10.70
2022-08-28T00:53:58.770Z,10.40
2022-08-28T00:59:45.216Z,11.20
2022-08-28T01:02:40.246Z,11.70
2022-08-28T01:05:27.438Z,11.30
2022-08-28T01:08:13.801Z,10.90
2022-08-28T01:11:01.187Z,10.80
2022-08-28T01:13:56.954Z,10.70
2022-08-28T01:16:56.336Z,10.00
2022-08-28T01:19:57.257Z,10.00
2022-08-28T01:22:57.470Z,11.20
2022-08-28T01:25:49.681Z,11.00
2022-08-28T01:28:42.402Z,11.20
2022-08-28T01:31:29.094Z,11.50
2022-08-28T01:34:23.662Z,9.90
2022-08-28T01:37:15.725Z,9.50
2022-08-28T01:40:10.510Z,10.40
2022-08-28T01:43:11.962Z,10.10
2022-08-28T01:46:06.362Z,10.30
2022-08-28T01:48:51.590Z,11.50
2022-08-28T01:51:44.847Z,10.80
2022-08-28T01:54:37.050Z,11.70
2022-08-28T01:57:31.161Z,12.70
2022-08-28T02:00:27.022Z,11.00
2022-08-28T02:03:19.059Z,11.10
2022-08-28T02:06:12.391Z,11.90
2022-08-28T02:09:05.330Z,11.20
2022-08-28T02:11:57.536Z,11.10
2022-08-28T02:14:49.654Z,10.20
2022-08-28T02:17:42.051Z,11.50
2022-08-28T02:20:35.063Z,12.30
2022-08-28T02:23:27.206Z,10.70
2022-08-28T02:26:20.994Z,10.60
2022-08-28T02:29:13.404Z,10.30
2022-08-28T02:32:06.337Z,9.30
2022-08-28T02:34:58.621Z,9.40
2022-08-28T02:37:50.896Z,9.60
2022-08-28T02:40:47.188Z,10.20
2022-08-28T02:43:39.369Z,10.60
2022-08-28T02:46:33.065Z,10.90
2022-08-28T02:49:25.145Z,10.20
2022-08-28T02:52:24.821Z,9.50
2022-08-28T02:55:19.632Z,9.30
2022-08-28T02:58:06.857Z,9.20
2022-08-28T03:00:52.006Z,9.80
2022-08-28T03:03:44.561Z,9.50
2022-08-28T03:06:36.665Z,9.10
2022-08-28T03:09:28.888Z,9.50
2022-08-28T03:12:24.136Z,9.60
2022-08-28T03:15:17.251Z,8.80
2022-08-28T03:18:11.286Z,9.40
2022-08-28T03:20:53.557Z,9.50
2022-08-28T03:23:45.622Z,9.10
2022-08-28T03:26:20.368Z,9.10
2022-08-28T03:28:55.371Z,9.60
2022-08-28T03:31:48.773Z,10.00
2022-08-28T03:34:41.194Z,9.10
2022-08-28T03:37:33.222Z,8.60
2022-08-28T03:40:25.580Z,9.20
2022-08-28T03:43:20.691Z,8.70
2022-08-28T03:46:04.826Z,9.00
2022-08-28T03:48:57.485Z,8.50
2022-08-28T03:51:49.557Z,9.60
2022-08-28T03:54:41.726Z,9.10
2022-08-28T03:57:26.923Z,9.40
2022-08-28T04:00:20.846Z,9.60
2022-08-28T04:03:13.713Z,10.20
2022-08-28T04:06:06.237Z,9.20
2022-08-28T04:08:51.927Z,8.50
2022-08-28T04:11:44.926Z,8.80
2022-08-28T04:14:37.551Z,8.80
2022-08-28T04:17:30.482Z,8.90
2022-08-28T04:20:22.711Z,8.40
2022-08-28T04:23:14.701Z,9.10
2022-08-28T04:26:09.054Z,9.70
2022-08-28T04:29:01.061Z,10.00
2022-08-28T04:31:53.143Z,10.20
2022-08-28T04:34:45.364Z,10.40
2022-08-28T04:37:37.641Z,10.20
2022-08-28T04:40:29.826Z,9.90
2022-08-28T04:43:22.396Z,9.90
2022-08-28T04:46:16.478Z,9.70
2022-08-28T04:49:08.914Z,9.90
2022-08-28T04:52:00.920Z,10.60
2022-08-28T04:54:52.979Z,10.80
2022-08-28T04:57:46.331Z,10.40
2022-08-28T05:00:39.335Z,10.00
2022-08-28T05:03:33.632Z,10.80
2022-08-28T05:06:28.095Z,9.90
2022-08-28T05:09:21.673Z,9.60
2022-08-28T05:12:17.462Z,10.40
2022-08-28T05:15:11.670Z,10.90
2022-08-28T05:17:53.603Z,10.50
2022-08-28T05:20:47.841Z,10.60
2022-08-28T05:23:39.792Z,10.20
2022-08-28T05:26:31.863Z,9.90
2022-08-28T05:29:17.817Z,10.90
2022-08-28T05:32:09.937Z,9.90
2022-08-28T05:35:01.937Z,10.00
2022-08-28T05:37:55.351Z,10.20
2022-08-28T05:40:47.934Z,10.00
2022-08-28T05:43:39.879Z,10.40
2022-08-28T05:46:32.595Z,10.80
2022-08-28T05:49:24.898Z,10.80
2022-08-28T05:52:16.977Z,10.60
2022-08-28T05:55:11.176Z,11.10
2022-08-28T05:58:23.150Z,9.90
2022-08-28T06:01:18.582Z,9.20
2022-08-28T06:04:14.589Z,9.40
2022-08-28T06:07:07.089Z,10.10
2022-08-28T06:09:59.081Z,9.80
2022-08-28T06:12:51.063Z,11.00
2022-08-28T06:15:45.832Z,11.00
2022-08-28T06:18:38.108Z,11.00
2022-08-28T06:21:30.726Z,10.10
2022-08-28T06:24:22.264Z,10.10
2022-08-28T06:27:14.246Z,10.80
2022-08-28T06:30:08.063Z,11.00
2022-08-28T06:32:59.148Z,11.80
2022-08-28T06:35:31.345Z,11.30
2022-08-28T06:38:13.598Z,11.10
2022-08-28T06:41:10.247Z,11.10
2022-08-28T06:44:02.620Z,11.30
2022-08-28T06:46:56.277Z,11.70
2022-08-28T06:49:48.278Z,11.60
2022-08-28T06:52:33.193Z,12.20
2022-08-28T06:55:26.508Z,11.70
2022-08-28T06:58:18.753Z,12.30
2022-08-28T07:01:14.358Z,12.10
2022-08-28T07:04:09.125Z,12.30
2022-08-28T07:06:54.748Z,12.10
2022-08-28T07:09:47.417Z,11.70
2022-08-28T07:12:40.238Z,12.50
2022-08-28T07:15:31.200Z,12.00
2022-08-28T07:18:23.500Z,12.50
2022-08-28T07:21:12.346Z,11.40
2022-08-28T07:24:05.410Z,11.10
2022-08-28T07:26:57.969Z,11.50
2022-08-28T07:29:50.998Z,11.80
2022-08-28T07:32:43.582Z,11.00
2022-08-28T07:35:35.589Z,11.60
2022-08-28T07:38:27.903Z,10.90
2022-08-28T07:41:22.342Z,11.40
2022-08-28T07:44:33.577Z,11.20
2022-08-28T07:47:26.021Z,10.30
2022-08-28T07:50:18.120Z,10.90
2022-08-28T07:53:10.103Z,11.30
2022-08-28T07:56:02.904Z,10.90
2022-08-28T07:58:48.052Z,11.20
2022-08-28T08:01:42.002Z,11.20
2022-08-28T08:04:34.074Z,11.10
2022-08-28T08:07:26.048Z,11.40
2022-08-28T08:10:19.918Z,10.90
2022-08-28T08:13:12.749Z,11.30
2022-08-28T08:16:07.429Z,11.80
2022-08-28T08:19:00.527Z,11.20
2022-08-28T08:21:54.697Z,11.90
2022-08-28T08:24:47.422Z,11.90
2022-08-28T08:27:42.938Z,11.40
2022-08-28T08:30:35.191Z,11.50
2022-08-28T08:33:28.242Z,11.60
2022-08-28T08:36:22.524Z,10.90
2022-08-28T08:39:14.527Z,11.30
2022-08-28T08:42:19.616Z,10.90
2022-08-28T08:45:15.230Z,11.60
2022-08-28T08:48:11.507Z,10.00
2022-08-28T08:53:54.212Z,9.60
2022-08-28T08:56:40.056Z,10.30
2022-08-28T08:59:36.892Z,10.20
2022-08-28T09:02:35.383Z,9.40
2022-08-28T09:05:23.472Z,10.00
2022-08-28T09:08:25.325Z,9.40
2022-08-28T09:11:31.740Z,9.30
2022-08-28T09:14:33.894Z,9.10
2022-08-28T09:17:32.640Z,8.80
2022-08-28T09:20:33.154Z,8.90
2022-08-28T09:23:15.403Z,8.50
2022-08-28T09:26:12.894Z,8.60
2022-08-28T09:29:04.844Z,8.10
2022-08-28T09:31:57.096Z,7.70
2022-08-28T09:35:09.481Z,7.10
2022-08-28T09:38:20.174Z,8.20
2022-08-28T09:41:36.805Z,7.00
2022-08-28T09:47:46.503Z,7.50
2022-08-28T09:50:42.458Z,8.80
2022-08-28T09:53:37.839Z,8.30
2022-08-28T09:56:33.570Z,8.50
2022-08-28T09:59:28.810Z,7.80
2022-08-28T10:02:32.918Z,8.20
2022-08-28T10:05:38.648Z,8.30
2022-08-28T10:08:44.900Z,6.50
2022-08-28T10:11:45.837Z,7.40
2022-08-28T10:14:53.923Z,7.30
2022-08-28T10:17:36.207Z,8.10
2022-08-28T10:20:25.656Z,8.00
2022-08-28T10:23:27.630Z,8.00
2022-08-28T10:26:35.297Z,8.20
2022-08-28T10:29:40.273Z,8.00
2022-08-28T10:32:55.686Z,8.20
2022-08-28T10:35:57.276Z,8.40
2022-08-28T10:38:54.833Z,8.40
2022-08-28T10:41:51.956Z,7.60
2022-08-28T10:44:53.459Z,5.60
2022-08-28T10:47:29.544Z,7.00
2022-08-28T10:53:15.071Z,8.10
2022-08-28T10:56:14.502Z,7.90
2022-08-28T10:58:59.992Z,7.70
2022-08-28T11:01:53.343Z,8.10
2022-08-28T11:04:47.502Z,6.80
2022-08-28T11:07:30.115Z,6.90
2022-08-28T11:10:41.791Z,6.80
2022-08-28T11:13:48.699Z,7.00
2022-08-28T11:16:46.106Z,7.10
2022-08-28T11:20:13.625Z,6.50
2022-08-28T11:23:16.073Z,7.40
2022-08-28T11:26:07.767Z,6.80
2022-08-28T11:28:59.796Z,7.30
2022-08-28T11:32:25.252Z,6.20
2022-08-28T11:35:45.485Z,6.50
2022-08-28T11:39:14.069Z,5.90
2022-08-28T11:42:38.918Z,6.20
2022-08-28T11:46:11.958Z,6.50
2022-08-28T11:48:52.143Z,6.10
2022-08-28T11:52:04.902Z,6.90
2022-08-28T11:55:07.041Z,6.10
2022-08-28T12:01:08.299Z,6.30
2022-08-28T12:04:01.927Z,5.90
2022-08-28T12:07:24.080Z,6.00
2022-08-28T12:10:46.642Z,5.30
2022-08-28T12:13:52.167Z,7.20
2022-08-28T12:23:42.918Z,5.60
2022-08-28T12:26:38.752Z,5.90
2022-08-28T12:29:39.917Z,4.90
2022-08-28T12:32:35.817Z,4.90
2022-08-28T12:35:31.149Z,5.20
2022-08-28T12:38:24.705Z,5.50
2022-08-28T12:41:21.008Z,5.10
2022-08-28T12:44:15.704Z,4.80
2022-08-28T12:47:02.731Z,7.50
2022-08-28T12:49:54.961Z,5.10
2022-08-28T12:52:52.794Z,5.30
2022-08-28T12:58:40.949Z,3.90
2022-08-28T13:01:35.602Z,3.50
2022-08-28T13:04:32.979Z,3.60
2022-08-28T13:07:30.643Z,2.90
2022-08-28T13:10:26.048Z,3.20
2022-08-28T13:13:25.157Z,3.40
2022-08-28T13:16:38.216Z,3.40
2022-08-28T13:19:31.939Z,4.40
2022-08-28T13:22:40.580Z,3.70
2022-08-28T13:25:35.564Z,5.80
2022-08-28T13:28:28.381Z,6.00
2022-08-28T13:31:30.244Z,3.20
2022-08-28T13:34:27.085Z,3.30
2022-08-28T13:37:55.268Z,3.60
2022-08-28T13:40:59.792Z,3.70
2022-08-28T13:43:52.360Z,3.30
2022-08-28T13:46:44.472Z,3.20
2022-08-28T13:49:36.838Z,3.50
2022-08-28T13:52:29.122Z,3.30
2022-08-28T13:55:22.027Z,3.00
2022-08-28T13:58:16.123Z,5.20
2022-08-28T14:01:11.442Z,3.20
2022-08-28T14:04:03.936Z,3.50
2022-08-28T14:06:56.022Z,3.50
2022-08-28T14:09:50.922Z,3.20
2022-08-28T14:12:47.824Z,3.50
2022-08-28T14:15:40.050Z,3.80
2022-08-28T14:18:32.288Z,3.50
2022-08-28T14:21:25.343Z,6.30
2022-08-28T14:24:18.083Z,4.00
2022-08-28T14:26:55.616Z,3.40
2022-08-28T14:29:49.155Z,4.00
2022-08-28T14:32:31.661Z,3.10
2022-08-28T14:35:23.840Z,3.10
2022-08-28T14:38:16.347Z,3.30
2022-08-28T14:41:12.469Z,3.60
2022-08-28T14:44:05.980Z,6.00
2022-08-28T14:46:58.316Z,4.60
2022-08-28T14:49:50.555Z,3.80
2022-08-28T14:52:44.002Z,3.20
2022-08-28T14:55:42.047Z,3.40
2022-08-28T14:58:25.186Z,3.30
2022-08-28T15:01:26.564Z,3.20
2022-08-28T15:04:37.776Z,3.30
2022-08-28T15:07:31.987Z,4.60
2022-08-28T15:10:17.365Z,3.50
2022-08-28T15:13:10.553Z,3.40
2022-08-28T15:16:15.501Z,3.60
2022-08-28T15:19:12.429Z,3.40
2022-08-28T15:22:05.357Z,3.20
2022-08-28T15:24:57.530Z,3.50
2022-08-28T15:27:49.761Z,3.50
2022-08-28T15:30:42.296Z,3.40
2022-08-28T15:33:34.436Z,3.40
2022-08-28T15:36:26.644Z,3.80
2022-08-28T15:39:37.722Z,3.40
2022-08-28T15:42:30.084Z,3.50
2022-08-28T15:45:22.982Z,3.70
2022-08-28T15:48:15.796Z,3.70
2022-08-28T15:51:08.241Z,3.60
2022-08-28T15:54:03.242Z,3.40
2022-08-28T15:56:55.918Z,4.00
2022-08-28T15:59:49.365Z,3.90
2022-08-28T16:02:42.819Z,3.90
2022-08-28T16:05:40.597Z,3.80
2022-08-28T16:08:33.302Z,3.90
2022-08-28T16:11:26.524Z,4.20
2022-08-28T16:14:21.068Z,4.60
2022-08-28T16:17:13.914Z,4.20
2022-08-28T16:20:12.883Z,4.10
2022-08-28T16:22:58.005Z,4.10
2022-08-28T16:25:50.339Z,4.00
2022-08-28T16:28:44.799Z,4.30
2022-08-28T16:31:37.173Z,4.50
2022-08-28T16:34:32.773Z,4.60
2022-08-28T16:37:20.822Z,4.40
2022-08-28T16:40:15.070Z,4.50
2022-08-28T16:43:07.929Z,4.70
2022-08-28T16:46:00.368Z,5.10
2022-08-28T16:48:54.788Z,4.80
2022-08-28T16:51:47.254Z,5.00
2022-08-28T16:54:39.540Z,4.50
2022-08-28T16:57:41.611Z,4.90
2022-08-28T17:00:34.091Z,4.60
2022-08-28T17:03:37.057Z,4.90
2022-08-28T17:06:33.368Z,5.40
2022-08-28T17:09:25.627Z,5.10
2022-08-28T17:12:20.401Z,5.30
2022-08-28T17:15:03.873Z,4.90
2022-08-28T17:17:56.991Z,5.80
2022-08-28T17:21:06.328Z,5.80
2022-08-28T17:24:00.155Z,6.30
2022-08-28T17:26:52.439Z,6.60
2022-08-28T17:29:44.925Z,7.40
2022-08-28T17:32:37.756Z,7.50
2022-08-28T17:35:30.018Z,7.80
2022-08-28T17:38:22.339Z,7.90
2022-08-28T17:41:14.700Z,6.90
2022-08-28T17:44:07.500Z,7.70
2022-08-28T17:46:59.703Z,8.20
2022-08-28T17:49:51.975Z,7.40
2022-08-28T17:52:44.225Z,6.90
2022-08-28T17:55:36.496Z,7.30
2022-08-28T17:58:28.632Z,6.50
2022-08-28T18:01:24.847Z,6.70
2022-08-28T18:04:23.961Z,6.70
2022-08-28T18:07:17.278Z,7.10
2022-08-28T18:10:11.895Z,6.60
2022-08-28T18:13:05.995Z,7.00
2022-08-28T18:15:58.509Z,7.00
2022-08-28T18:18:43.771Z,6.40
2022-08-28T18:21:36.380Z,6.30
2022-08-28T18:24:28.580Z,5.90
2022-08-28T18:27:26.624Z,5.50
2022-08-28T18:30:18.666Z,6.10
2022-08-28T18:33:27.075Z,6.40
2022-08-28T18:36:19.259Z,6.10
2022-08-28T18:39:11.427Z,6.30
2022-08-28T18:42:07.892Z,6.30
2022-08-28T18:45:00.214Z,6.50
2022-08-28T18:47:52.871Z,7.10
2022-08-28T18:50:46.607Z,6.70
2022-08-28T18:53:38.882Z,6.40
2022-08-28T18:56:37.138Z,6.40
2022-08-28T18:59:33.242Z,5.70
2022-08-28T19:02:25.534Z,6.00
2022-08-28T19:05:18.159Z,5.80
2022-08-28T19:08:10.641Z,6.50
2022-08-28T19:11:07.643Z,6.40
2022-08-28T19:14:04.044Z,6.80
2022-08-28T19:16:56.996Z,7.10
2022-08-28T19:19:52.621Z,7.30
2022-08-28T19:22:44.728Z,6.40
2022-08-28T19:25:37.703Z,7.10
2022-08-28T19:28:31.106Z,7.40
2022-08-28T19:31:24.260Z,7.50
2022-08-28T19:34:18.228Z,6.50
2022-08-28T19:37:10.479Z,6.80
2022-08-28T19:39:56.703Z,6.70
2022-08-28T19:42:50.196Z,6.90
2022-08-28T19:45:45.991Z,7.50
2022-08-28T19:48:39.150Z,7.30
2022-08-28T19:51:22.549Z,7.80
2022-08-28T19:54:16.175Z,7.80
2022-08-28T19:57:09.843Z,8.10
2022-08-28T20:00:02.577Z,7.70
2022-08-28T20:02:37.181Z,7.30
2022-08-28T20:05:29.604Z,7.30
2022-08-28T20:08:24.035Z,7.10
2022-08-28T20:11:24.802Z,7.10
2022-08-28T20:14:18.810Z,7.30
2022-08-28T20:17:11.145Z,7.40
2022-08-28T20:20:03.846Z,8.30
2022-08-28T20:22:58.554Z,7.90
2022-08-28T20:29:24.478Z,7.10
2022-08-28T20:32:17.901Z,6.80
2022-08-28T20:35:13.407Z,6.90
2022-08-28T20:38:05.860Z,7.90
2022-08-28T20:40:38.462Z,7.90
2022-08-28T20:43:30.916Z,8.40
2022-08-28T20:46:23.457Z,8.20
2022-08-28T20:49:17.248Z,8.00
2022-08-28T20:52:09.836Z,8.10
2022-08-28T20:55:02.029Z,7.30
2022-08-28T20:57:54.328Z,7.80
2022-08-28T21:00:47.476Z,8.80
2022-08-28T21:03:41.056Z,8.30
2022-08-28T21:06:33.294Z,8.40
2022-08-28T21:09:43.962Z,7.50
2022-08-28T21:12:38.927Z,7.80
2022-08-28T21:15:31.623Z,7.80
2022-08-28T21:18:23.854Z,7.50
2022-08-28T21:21:16.724Z,7.80
2022-08-28T21:24:15.489Z,8.00
2022-08-28T21:27:09.552Z,6.90
2022-08-28T21:29:44.686Z,7.70
2022-08-28T21:32:38.154Z,7.30
2022-08-28T21:35:30.320Z,8.00
2022-08-28T21:38:22.635Z,7.50
2022-08-28T21:41:16.606Z,7.60
2022-08-28T21:44:09.556Z,7.80
2022-08-28T21:47:03.082Z,7.60
2022-08-28T21:49:57.410Z,8.20
2022-08-28T21:52:49.759Z,8.00
2022-08-28T21:55:49.462Z,8.50
2022-08-28T21:58:41.643Z,8.00
2022-08-28T22:01:35.781Z,7.50
2022-08-28T22:04:27.961Z,8.70
2022-08-28T22:07:20.905Z,8.80
2022-08-28T22:10:14.160Z,9.10
2022-08-28T22:13:06.876Z,8.70
2022-08-28T22:15:59.520Z,9.00
2022-08-28T22:18:52.242Z,8.50
2022-08-28T22:22:01.857Z,8.10
2022-08-28T22:24:56.686Z,8.60
2022-08-28T22:27:48.951Z,7.40
2022-08-28T22:30:41.226Z,7.80
2022-08-28T22:33:28.828Z,7.90
2022-08-28T22:36:21.081Z,7.20
2022-08-28T22:39:13.594Z,7.70
2022-08-28T22:42:05.867Z,8.10
2022-08-28T22:45:00.219Z,7.80
2022-08-28T22:47:54.206Z,7.60
2022-08-28T22:50:40.084Z,8.40
2022-08-28T22:53:32.221Z,8.50
2022-08-28T22:56:24.909Z,8.90
2022-08-28T22:59:17.117Z,8.70
2022-08-28T23:02:09.416Z,7.50
2022-08-28T23:05:01.708Z,8.40
2022-08-28T23:07:54.020Z,8.40
2022-08-28T23:10:59.107Z,9.10
2022-08-28T23:13:51.907Z,9.20
2022-08-28T23:16:44.262Z,9.00
2022-08-28T23:19:36.702Z,9.20
2022-08-28T23:22:29.038Z,10.10
2022-08-28T23:25:24.800Z,9.80
2022-08-28T23:28:17.074Z,9.60
2022-08-28T23:31:10.392Z,11.00
2022-08-28T23:34:02.609Z,10.40
2022-08-28T23:36:58.108Z,10.10
2022-08-28T23:39:50.868Z,8.10
2022-08-28T23:42:44.311Z,8.20
2022-08-28T23:45:39.565Z,8.10
2022-08-28T23:48:32.338Z,7.40
2022-08-28T23:51:24.446Z,7.40
2022-08-28T23:54:17.503Z,7.10
2022-08-28T23:57:11.049Z,7.40
